< < Back
Terminal Aerodrome Forecast


Current Version              Previous Versions:   1  2  3  4  5  6  7  8  9  

Terminal Aerodrome Forecast

944
FTAK31 PAJN 291800 AAA
TAFAHN
TAF AMD
PAHN 291800Z 2918/3018 30009KT P6SM VCSH OVC035
      TEMPO 2918/2921 30010G20KT 4SM -SN OVC035
     FM292100 30010KT 5SM -SN OVC050
     FM300000 31010KT P6SM VCSH OVC025
     FM300900 30005KT 2SM BR BKN100
     FM301500 30011KT P6SM SCT100
      AMD LTD TO CLD VIS AND WIND=

Latest METAR

120
SAUS70 KWBC 300000
MTRAHN
METAR KAHN 292351Z 20003KT 6SM HZ BKN100 11/M02 A3012 RMK AO2 SLP205
T01061022 10144 20106 55004


USA.gov is the U.S. government's official web portal to all federal, state and local government web resources and services.